createdAt,value
2017-09-24T00:01:21.067Z,25.00
2017-09-24T00:03:51.402Z,26.00
2017-09-24T00:06:22.103Z,26.40
2017-09-24T00:08:52.485Z,24.63
2017-09-24T00:11:22.422Z,25.73
2017-09-24T00:13:52.677Z,25.60
2017-09-24T00:16:22.594Z,25.37
2017-09-24T00:18:52.954Z,25.73
2017-09-24T00:21:22.866Z,24.80
2017-09-24T00:23:53.118Z,26.63
2017-09-24T00:26:23.060Z,26.30
2017-09-24T00:28:53.297Z,25.57
2017-09-24T00:31:23.199Z,25.40
2017-09-24T00:33:53.540Z,25.70
2017-09-24T00:36:23.455Z,24.43
2017-09-24T00:38:53.372Z,25.97
2017-09-24T00:41:23.298Z,27.40
2017-09-24T00:43:53.243Z,27.23
2017-09-24T00:46:23.613Z,24.53
2017-09-24T00:48:53.515Z,26.03
2017-09-24T00:51:23.796Z,26.13
2017-09-24T00:53:53.679Z,25.93
2017-09-24T00:56:23.934Z,24.33
2017-09-24T00:58:53.835Z,27.53
2017-09-24T01:01:24.245Z,26.60
2017-09-24T01:03:54.162Z,27.77
2017-09-24T01:06:24.405Z,26.03
2017-09-24T01:08:54.372Z,26.40
2017-09-24T01:11:24.311Z,28.17
2017-09-24T01:13:54.201Z,27.27
2017-09-24T01:16:24.224Z,27.00
2017-09-24T01:18:54.586Z,27.97
2017-09-24T01:21:24.585Z,27.37
2017-09-24T01:23:54.915Z,29.30
2017-09-24T01:26:24.816Z,27.73
2017-09-24T01:28:55.049Z,26.87
2017-09-24T01:31:24.917Z,28.60
2017-09-24T01:33:55.223Z,26.60
2017-09-24T01:36:25.189Z,26.50
2017-09-24T01:38:55.724Z,26.47
2017-09-24T01:41:25.678Z,27.40
2017-09-24T01:43:55.948Z,26.00
2017-09-24T01:46:25.828Z,26.53
2017-09-24T01:48:56.074Z,27.50
2017-09-24T01:51:25.942Z,26.50
2017-09-24T01:53:56.239Z,26.37
2017-09-24T01:56:26.159Z,27.23
2017-09-24T01:58:56.470Z,26.57
2017-09-24T02:01:26.357Z,27.37
2017-09-24T02:03:56.329Z,28.23
2017-09-24T02:06:26.216Z,27.50
2017-09-24T02:08:56.106Z,29.63
2017-09-24T02:11:26.454Z,26.00
2017-09-24T02:13:56.389Z,27.13
2017-09-24T02:16:26.691Z,27.20
2017-09-24T02:18:56.566Z,26.30
2017-09-24T02:21:26.838Z,27.30
2017-09-24T02:23:56.766Z,25.97
2017-09-24T02:26:27.269Z,25.17
2017-09-24T02:28:57.606Z,25.50
2017-09-24T02:31:27.637Z,26.50
2017-09-24T02:33:57.518Z,24.00
2017-09-24T02:36:27.795Z,25.10
2017-09-24T02:38:57.729Z,26.60
2017-09-24T02:41:27.952Z,25.30
2017-09-24T02:43:57.900Z,26.73
2017-09-24T02:46:28.209Z,27.70
2017-09-24T02:48:58.102Z,26.93
2017-09-24T02:51:28.461Z,27.23
2017-09-24T02:53:58.340Z,26.43
2017-09-24T02:56:28.767Z,26.27
2017-09-24T02:58:58.650Z,27.63
2017-09-24T03:01:28.904Z,28.20
2017-09-24T03:03:58.816Z,26.80
2017-09-24T03:06:29.060Z,28.47
2017-09-24T03:08:58.966Z,28.60
2017-09-24T03:11:32.244Z,28.20
2017-09-24T03:14:03.050Z,28.27
2017-09-24T03:16:33.295Z,29.03
2017-09-24T03:19:03.202Z,28.10
2017-09-24T03:21:33.414Z,27.47
2017-09-24T03:24:03.309Z,28.60
2017-09-24T03:26:33.233Z,28.40
2017-09-24T03:29:03.142Z,27.30
2017-09-24T03:31:33.074Z,27.30
2017-09-24T03:34:03.435Z,29.40
2017-09-24T03:36:33.338Z,28.30
2017-09-24T03:39:03.662Z,28.40
2017-09-24T03:41:33.567Z,29.77
2017-09-24T03:44:03.781Z,28.80
2017-09-24T03:46:33.710Z,29.90
2017-09-24T03:49:04.035Z,30.33
2017-09-24T03:51:33.941Z,30.53
2017-09-24T03:54:04.285Z,31.40
2017-09-24T03:56:34.206Z,31.23
2017-09-24T03:59:04.513Z,30.37
2017-09-24T04:01:34.432Z,30.40
2017-09-24T04:04:04.340Z,31.00
2017-09-24T04:06:34.238Z,30.10
2017-09-24T04:09:04.148Z,31.47
2017-09-24T04:11:34.469Z,33.03
2017-09-24T04:14:04.385Z,30.37
2017-09-24T04:16:34.328Z,31.00
2017-09-24T04:19:04.209Z,30.10
2017-09-24T04:21:34.119Z,30.20
2017-09-24T04:24:04.371Z,30.97
2017-09-24T04:26:34.274Z,28.97
2017-09-24T04:29:04.702Z,30.47
2017-09-24T04:31:34.700Z,31.03
2017-09-24T04:34:05.067Z,30.43
2017-09-24T04:36:34.934Z,30.07
2017-09-24T04:39:05.261Z,30.10
2017-09-24T04:41:35.161Z,29.20
2017-09-24T04:44:05.508Z,32.20
2017-09-24T04:46:35.399Z,30.83
2017-09-24T04:49:05.744Z,30.77
2017-09-24T04:51:35.650Z,31.80
2017-09-24T04:54:06.017Z,29.33
2017-09-24T04:56:35.937Z,31.67
2017-09-24T04:59:06.229Z,30.40
2017-09-24T05:01:36.126Z,30.07
2017-09-24T05:04:06.470Z,31.87
2017-09-24T05:06:36.385Z,31.47
2017-09-24T05:09:06.835Z,31.20
2017-09-24T05:11:36.800Z,31.17
2017-09-24T05:14:07.148Z,30.47
2017-09-24T05:16:37.090Z,32.03
2017-09-24T05:19:07.367Z,31.80
2017-09-24T05:21:37.296Z,30.30
2017-09-24T05:24:07.551Z,28.83
2017-09-24T05:26:37.714Z,30.60
2017-09-24T05:29:08.085Z,28.93
2017-09-24T05:31:37.999Z,27.30
2017-09-24T05:34:08.376Z,29.40
2017-09-24T05:36:38.321Z,29.40
2017-09-24T05:39:08.554Z,28.60
2017-09-24T05:41:38.446Z,29.87
2017-09-24T05:44:08.910Z,27.50
2017-09-24T05:46:38.818Z,26.97
2017-09-24T05:49:09.103Z,28.90
2017-09-24T05:51:39.026Z,27.10
2017-09-24T05:54:09.441Z,27.53
2017-09-24T05:56:39.320Z,27.10
2017-09-24T05:59:09.603Z,29.13
2017-09-24T06:01:39.473Z,27.47
2017-09-24T06:04:09.362Z,28.37
2017-09-24T06:06:39.281Z,27.93
2017-09-24T06:09:09.182Z,26.00
2017-09-24T06:11:39.102Z,26.33
2017-09-24T06:14:08.989Z,26.60
2017-09-24T06:16:39.231Z,25.87
2017-09-24T06:19:09.118Z,26.73
2017-09-24T06:21:39.406Z,26.23
2017-09-24T06:24:09.360Z,24.30
2017-09-24T06:26:39.801Z,24.80
2017-09-24T06:29:09.699Z,24.27
2017-09-24T06:31:39.976Z,25.60
2017-09-24T06:34:09.863Z,24.37
2017-09-24T06:36:40.120Z,23.73
2017-09-24T06:39:10.023Z,23.10
2017-09-24T06:41:40.270Z,24.47
2017-09-24T06:44:10.172Z,22.23
2017-09-24T06:46:40.508Z,24.90
2017-09-24T06:49:10.394Z,23.10
2017-09-24T06:51:40.296Z,22.37
2017-09-24T06:54:10.169Z,23.70
2017-09-24T06:56:40.047Z,22.80
2017-09-24T06:59:10.371Z,21.40
2017-09-24T07:01:40.242Z,23.27
2017-09-24T07:04:10.612Z,22.07
2017-09-24T07:06:40.498Z,21.00
2017-09-24T07:09:10.754Z,21.60
2017-09-24T07:11:40.615Z,23.17
2017-09-24T07:14:10.885Z,21.20
2017-09-24T07:16:40.800Z,21.93
2017-09-24T07:19:11.107Z,20.93
2017-09-24T07:21:40.980Z,21.70
2017-09-24T07:24:11.355Z,20.47
2017-09-24T07:26:42.008Z,19.50
2017-09-24T07:29:12.254Z,21.00
2017-09-24T07:31:42.128Z,19.23
2017-09-24T07:34:12.586Z,15.33
2017-09-24T07:36:42.476Z,18.60
2017-09-24T07:39:12.759Z,19.47
2017-09-24T07:41:42.719Z,17.77
2017-09-24T07:44:12.972Z,17.93
2017-09-24T07:46:42.878Z,19.70
2017-09-24T07:49:13.125Z,17.77
2017-09-24T07:51:43.031Z,17.63
2017-09-24T07:54:13.407Z,17.10
2017-09-24T07:56:43.431Z,18.07
2017-09-24T07:59:13.724Z,16.00
2017-09-24T08:01:43.777Z,15.93
2017-09-24T08:04:14.062Z,17.33
2017-09-24T08:06:43.980Z,17.07
2017-09-24T08:09:14.306Z,17.50
2017-09-24T08:11:44.203Z,18.17
2017-09-24T08:14:14.527Z,16.10
2017-09-24T08:16:44.397Z,16.53
2017-09-24T08:19:14.298Z,16.77
2017-09-24T08:21:44.326Z,15.67
2017-09-24T08:24:14.240Z,15.67
2017-09-24T08:26:44.515Z,16.07
2017-09-24T08:29:14.432Z,15.87
2017-09-24T08:31:44.345Z,16.30
2017-09-24T08:34:14.294Z,14.43
2017-09-24T08:36:44.176Z,16.30
2017-09-24T08:39:14.023Z,15.93
2017-09-24T08:41:43.932Z,15.10
2017-09-24T08:44:14.220Z,16.30
2017-09-24T08:46:44.134Z,15.13
2017-09-24T08:49:14.467Z,15.10
2017-09-24T08:51:44.389Z,18.23
2017-09-24T08:54:14.434Z,16.67
2017-09-24T08:56:44.357Z,15.20
2017-09-24T08:59:14.350Z,13.00
2017-09-24T09:01:44.641Z,15.80
2017-09-24T09:04:14.665Z,16.33
2017-09-24T09:06:45.150Z,16.53
2017-09-24T09:09:15.085Z,15.70
2017-09-24T09:11:45.538Z,13.47
2017-09-24T09:14:15.550Z,9.03
2017-09-24T09:16:45.897Z,15.50
2017-09-24T09:19:15.815Z,15.20
2017-09-24T09:21:47.688Z,14.80
2017-09-24T09:24:17.613Z,16.47
2017-09-24T09:26:48.001Z,16.17
2017-09-24T09:29:17.921Z,17.00
2017-09-24T09:31:48.323Z,16.23
2017-09-24T09:34:29.828Z,17.10
2017-09-24T09:37:00.245Z,13.60
2017-09-24T09:39:30.231Z,17.00
2017-09-24T09:42:00.672Z,18.90
2017-09-24T09:44:42.371Z,17.30
2017-09-24T09:47:24.271Z,18.33
2017-09-24T09:49:54.167Z,16.97
2017-09-24T09:52:24.479Z,17.67
2017-09-24T09:54:54.478Z,15.90
2017-09-24T09:57:24.755Z,17.10
2017-09-24T09:59:54.783Z,14.77
2017-09-24T10:02:25.055Z,17.90
2017-09-24T10:04:55.133Z,16.07
2017-09-24T10:07:37.077Z,16.90
2017-09-24T10:10:16.805Z,17.93
2017-09-24T10:12:47.140Z,17.20
2017-09-24T10:15:17.072Z,18.40
2017-09-24T10:17:47.483Z,15.60
2017-09-24T10:20:17.420Z,18.73
2017-09-24T10:22:47.714Z,18.47
2017-09-24T10:25:17.629Z,17.40
2017-09-24T10:27:47.908Z,18.63
2017-09-24T10:30:29.832Z,18.87
2017-09-24T10:33:00.140Z,16.77
2017-09-24T10:35:30.012Z,16.13
2017-09-24T10:38:00.326Z,18.07
2017-09-24T10:40:30.227Z,18.67
2017-09-24T10:43:00.483Z,16.43
2017-09-24T10:45:30.367Z,18.40
2017-09-24T10:48:00.283Z,17.50
2017-09-24T10:50:30.233Z,16.03
2017-09-24T10:53:00.140Z,17.00
2017-09-24T10:55:30.455Z,16.87
2017-09-24T10:58:01.069Z,17.60
2017-09-24T11:00:31.563Z,16.30
2017-09-24T11:03:01.494Z,15.20
2017-09-24T11:05:31.465Z,15.17
2017-09-24T11:08:01.365Z,12.30
2017-09-24T11:10:31.593Z,14.60
2017-09-24T11:13:01.856Z,14.50
2017-09-24T11:15:32.861Z,15.63
2017-09-24T11:18:03.187Z,16.20
2017-09-24T11:20:33.096Z,15.47
2017-09-24T11:23:03.437Z,14.90
2017-09-24T11:25:33.531Z,15.43
2017-09-24T11:28:03.818Z,15.23
2017-09-24T11:30:33.739Z,15.00
2017-09-24T11:33:03.999Z,15.60
2017-09-24T11:35:33.928Z,14.10
2017-09-24T11:38:04.579Z,13.87
2017-09-24T11:40:34.518Z,15.40
2017-09-24T11:43:04.948Z,14.67
2017-09-24T11:45:35.049Z,15.50
2017-09-24T11:48:05.421Z,15.97
2017-09-24T11:50:35.394Z,14.37
2017-09-24T11:53:05.340Z,15.00
2017-09-24T11:55:35.429Z,15.93
2017-09-24T11:58:06.053Z,15.27
2017-09-24T12:00:36.487Z,15.00
2017-09-24T12:03:06.416Z,14.70
2017-09-24T12:05:36.747Z,14.10
2017-09-24T12:08:06.735Z,14.80
2017-09-24T12:10:37.063Z,15.40
2017-09-24T12:13:07.100Z,15.37
2017-09-24T12:15:37.628Z,15.37
2017-09-24T12:18:07.688Z,15.20
2017-09-24T12:20:38.426Z,15.10
2017-09-24T12:23:08.355Z,16.47
2017-09-24T12:25:38.782Z,15.13
2017-09-24T12:28:08.697Z,18.67
2017-09-24T12:30:39.123Z,17.70
2017-09-24T12:33:09.030Z,17.77
2017-09-24T12:35:39.295Z,16.47
2017-09-24T12:38:09.215Z,17.07
2017-09-24T12:40:39.499Z,17.47
2017-09-24T12:43:09.421Z,17.60
2017-09-24T12:45:39.364Z,17.40
2017-09-24T12:48:09.326Z,20.30
2017-09-24T12:50:39.313Z,18.70
2017-09-24T12:53:09.648Z,18.53
2017-09-24T12:55:39.553Z,18.87
2017-09-24T12:58:10.004Z,18.83
2017-09-24T13:00:39.880Z,19.00
2017-09-24T13:03:10.242Z,19.97
2017-09-24T13:05:40.169Z,19.07
2017-09-24T13:08:10.481Z,19.10
2017-09-24T13:10:40.379Z,19.17
2017-09-24T13:13:10.322Z,18.13
2017-09-24T13:15:40.278Z,17.77
2017-09-24T13:18:10.252Z,18.50
2017-09-24T13:20:40.577Z,20.50
2017-09-24T13:23:11.507Z,17.50
2017-09-24T13:25:41.832Z,19.23
2017-09-24T13:28:12.070Z,19.13
2017-09-24T13:30:42.477Z,16.90
2017-09-24T13:33:12.420Z,19.33
2017-09-24T13:35:42.758Z,17.03
2017-09-24T13:38:12.708Z,16.07
2017-09-24T13:40:43.036Z,16.00
2017-09-24T13:43:12.939Z,15.23
2017-09-24T13:45:43.220Z,14.53
2017-09-24T13:48:13.392Z,15.27
2017-09-24T13:50:44.049Z,15.57
2017-09-24T13:53:13.994Z,16.63
2017-09-24T13:55:44.370Z,15.73
2017-09-24T13:58:14.280Z,15.00
2017-09-24T14:00:44.602Z,16.00
2017-09-24T14:03:14.498Z,16.50
2017-09-24T14:05:44.870Z,15.17
2017-09-24T14:08:14.831Z,13.17
2017-09-24T14:10:45.184Z,14.97
2017-09-24T14:13:15.253Z,15.30
2017-09-24T14:15:45.819Z,14.10
2017-09-24T14:18:15.843Z,14.93
2017-09-24T14:20:46.192Z,15.40
2017-09-24T14:23:16.126Z,15.23
2017-09-24T14:25:46.384Z,14.00
2017-09-24T14:28:16.322Z,14.03
2017-09-24T14:30:46.399Z,14.07
2017-09-24T14:33:16.334Z,14.00
2017-09-24T14:35:46.330Z,15.00
2017-09-24T14:38:16.621Z,13.73
2017-09-24T14:40:46.520Z,14.07
2017-09-24T14:43:16.779Z,15.47
2017-09-24T14:45:46.731Z,15.63
2017-09-24T14:48:17.100Z,20.27
2017-09-24T14:50:47.047Z,15.23
2017-09-24T14:53:17.424Z,15.80
2017-09-24T14:55:47.434Z,17.13
2017-09-24T14:58:17.759Z,16.17
2017-09-24T15:00:47.842Z,16.70
2017-09-24T15:03:18.207Z,16.10
2017-09-24T15:05:48.127Z,17.23
2017-09-24T15:08:18.550Z,17.30
2017-09-24T15:10:48.465Z,18.30
2017-09-24T15:13:18.734Z,18.83
2017-09-24T15:15:48.639Z,17.00
2017-09-24T15:18:18.876Z,18.63
2017-09-24T15:20:48.768Z,18.10
2017-09-24T15:23:19.146Z,16.97
2017-09-24T15:25:49.134Z,17.53
2017-09-24T15:28:19.585Z,17.90
2017-09-24T15:30:49.482Z,16.23
2017-09-24T15:33:19.844Z,18.17
2017-09-24T15:35:49.814Z,17.03
2017-09-24T15:38:20.164Z,17.47
2017-09-24T15:40:50.101Z,18.63
2017-09-24T15:43:20.416Z,16.27
2017-09-24T15:45:50.347Z,17.80
2017-09-24T15:48:20.891Z,17.17
2017-09-24T15:50:50.802Z,16.77
2017-09-24T15:53:21.167Z,17.10
2017-09-24T15:55:51.092Z,19.13
2017-09-24T15:58:21.464Z,17.63
2017-09-24T16:00:51.371Z,18.30
2017-09-24T16:03:21.709Z,19.37
2017-09-24T16:05:51.636Z,19.10
2017-09-24T16:08:22.097Z,20.07
2017-09-24T16:10:52.010Z,20.00
2017-09-24T16:13:22.408Z,20.87
2017-09-24T16:15:52.319Z,20.87
2017-09-24T16:18:22.574Z,21.27
2017-09-24T16:20:52.514Z,19.30
2017-09-24T16:23:22.844Z,21.27
2017-09-24T16:25:52.931Z,18.50
2017-09-24T16:28:23.232Z,20.40
2017-09-24T16:30:53.152Z,20.83
2017-09-24T16:33:23.436Z,21.70
2017-09-24T16:35:53.406Z,20.70
2017-09-24T16:38:23.429Z,23.00
2017-09-24T16:40:53.340Z,19.40
2017-09-24T16:43:23.293Z,23.43
2017-09-24T16:45:53.594Z,22.17
2017-09-24T16:48:23.532Z,23.30
2017-09-24T16:50:53.897Z,22.40
2017-09-24T16:53:23.861Z,23.40
2017-09-24T16:55:54.266Z,23.97
2017-09-24T16:58:24.272Z,21.87
2017-09-24T17:00:54.542Z,21.47
2017-09-24T17:03:24.628Z,23.70
2017-09-24T17:05:55.036Z,22.20
2017-09-24T17:08:25.063Z,23.33
2017-09-24T17:10:55.399Z,24.00
2017-09-24T17:13:25.305Z,23.53
2017-09-24T17:15:55.566Z,24.50
2017-09-24T17:18:26.633Z,26.17
2017-09-24T17:20:57.092Z,24.80
2017-09-24T17:23:27.045Z,24.83
2017-09-24T17:25:57.330Z,26.53
2017-09-24T17:28:27.252Z,23.73
2017-09-24T17:30:57.547Z,25.40
2017-09-24T17:33:27.490Z,27.67
2017-09-24T17:35:57.771Z,26.40
2017-09-24T17:38:27.832Z,26.30
2017-09-24T17:40:58.114Z,26.57
2017-09-24T17:43:28.058Z,27.97
2017-09-24T17:45:58.450Z,29.07
2017-09-24T17:48:28.342Z,28.73
2017-09-24T17:50:58.587Z,28.07
2017-09-24T17:53:28.554Z,28.73
2017-09-24T17:55:59.027Z,28.60
2017-09-24T17:58:28.976Z,30.27
2017-09-24T18:00:59.366Z,31.53
2017-09-24T18:03:29.408Z,29.77
2017-09-24T18:05:59.704Z,32.40
2017-09-24T18:08:29.655Z,32.13
2017-09-24T18:10:59.954Z,32.80
2017-09-24T18:13:29.894Z,32.27
2017-09-24T18:16:00.281Z,33.40
2017-09-24T18:18:30.271Z,34.33
2017-09-24T18:21:00.582Z,32.07
2017-09-24T18:23:30.469Z,33.93
2017-09-24T18:26:00.874Z,34.67
2017-09-24T18:28:30.853Z,34.03
2017-09-24T18:31:01.304Z,34.93
2017-09-24T18:33:31.292Z,34.50
2017-09-24T18:36:01.725Z,33.93
2017-09-24T18:38:31.643Z,32.90
2017-09-24T18:41:01.974Z,35.30
2017-09-24T18:43:31.884Z,34.70
2017-09-24T18:46:02.207Z,32.10
2017-09-24T18:48:32.191Z,33.97
2017-09-24T18:51:02.637Z,35.00
2017-09-24T18:53:32.555Z,33.47
2017-09-24T18:56:03.519Z,31.73
2017-09-24T18:58:33.443Z,33.87
2017-09-24T19:01:03.551Z,33.73
2017-09-24T19:03:33.526Z,35.47
2017-09-24T19:06:03.528Z,34.00
2017-09-24T19:08:34.681Z,33.20
2017-09-24T19:11:04.747Z,31.17
2017-09-24T19:13:35.059Z,31.80
2017-09-24T19:16:05.044Z,31.60
2017-09-24T19:18:35.416Z,32.47
2017-09-24T19:21:05.593Z,31.87
2017-09-24T19:23:35.922Z,33.27
2017-09-24T19:26:05.919Z,32.40
2017-09-24T19:28:36.197Z,32.83
2017-09-24T19:31:06.108Z,32.57
2017-09-24T19:33:36.349Z,34.80
2017-09-24T19:36:06.254Z,31.90
2017-09-24T19:38:36.637Z,31.50
2017-09-24T19:41:06.591Z,32.33
2017-09-24T19:43:36.829Z,32.53
2017-09-24T19:46:06.804Z,34.33
2017-09-24T19:48:37.090Z,34.83
2017-09-24T19:51:07.004Z,33.23
2017-09-24T19:53:37.294Z,32.40
2017-09-24T19:56:07.216Z,34.60
2017-09-24T19:58:38.319Z,34.27
2017-09-24T20:01:08.355Z,34.00
2017-09-24T20:03:38.765Z,32.00
2017-09-24T20:06:08.700Z,33.23
2017-09-24T20:08:39.079Z,34.97
2017-09-24T20:11:09.043Z,33.60
2017-09-24T20:13:39.421Z,33.33
2017-09-24T20:16:09.457Z,33.57
2017-09-24T20:18:39.758Z,32.47
2017-09-24T20:21:09.683Z,31.37
2017-09-24T20:23:39.975Z,31.07
2017-09-24T20:26:09.850Z,31.73
2017-09-24T20:28:40.242Z,30.40
2017-09-24T20:31:10.145Z,29.10
2017-09-24T20:33:40.446Z,31.00
2017-09-24T20:36:10.378Z,33.93
2017-09-24T20:38:40.348Z,31.97
2017-09-24T20:41:10.276Z,31.57
2017-09-24T20:43:40.315Z,30.77
2017-09-24T20:46:10.583Z,31.83
2017-09-24T20:48:40.624Z,32.80
2017-09-24T20:51:11.004Z,30.57
2017-09-24T20:53:40.959Z,32.73
2017-09-24T20:56:10.997Z,34.50
2017-09-24T20:58:41.054Z,33.03
2017-09-24T21:01:11.360Z,31.87
2017-09-24T21:03:41.372Z,30.83
2017-09-24T21:06:11.694Z,34.10
2017-09-24T21:08:41.612Z,31.30
2017-09-24T21:11:11.951Z,34.73
2017-09-24T21:13:41.923Z,35.73
2017-09-24T21:16:12.317Z,36.13
2017-09-24T21:18:42.390Z,35.53
2017-09-24T21:21:12.710Z,36.03
2017-09-24T21:23:42.649Z,34.03
2017-09-24T21:26:12.979Z,34.57
2017-09-24T21:28:43.498Z,37.27
2017-09-24T21:31:13.841Z,35.77
2017-09-24T21:33:43.788Z,34.03
2017-09-24T21:36:14.242Z,33.63
2017-09-24T21:38:44.168Z,38.20
2017-09-24T21:41:14.676Z,36.30
2017-09-24T21:43:44.571Z,36.17
2017-09-24T21:46:15.089Z,38.37
2017-09-24T21:48:45.007Z,35.50
2017-09-24T21:51:15.267Z,36.50
2017-09-24T21:53:45.262Z,34.70
2017-09-24T21:56:15.747Z,35.70
2017-09-24T21:58:45.688Z,32.60
2017-09-24T22:01:15.940Z,36.40
2017-09-24T22:03:45.884Z,35.47
2017-09-24T22:06:16.286Z,34.97
2017-09-24T22:08:46.586Z,34.30
2017-09-24T22:11:16.813Z,33.43
2017-09-24T22:13:47.585Z,37.00
2017-09-24T22:16:17.932Z,33.83
2017-09-24T22:18:47.834Z,35.77
2017-09-24T22:21:18.426Z,33.97
2017-09-24T22:23:48.315Z,36.80
2017-09-24T22:26:18.560Z,33.47
2017-09-24T22:28:48.509Z,36.23
2017-09-24T22:31:18.869Z,36.03
2017-09-24T22:33:48.781Z,33.30
2017-09-24T22:36:19.232Z,34.23
2017-09-24T22:38:51.220Z,35.47
2017-09-24T22:41:21.530Z,36.33
2017-09-24T22:43:51.438Z,37.57
2017-09-24T22:46:21.353Z,35.33
2017-09-24T22:48:51.690Z,38.50
2017-09-24T22:51:21.566Z,37.97
2017-09-24T22:53:51.918Z,37.40
2017-09-24T22:56:21.992Z,39.23
2017-09-24T22:58:52.211Z,39.33
2017-09-24T23:01:22.117Z,42.63
2017-09-24T23:03:52.409Z,43.57
2017-09-24T23:06:22.348Z,45.47
2017-09-24T23:08:52.575Z,46.17
2017-09-24T23:11:22.469Z,47.73
2017-09-24T23:13:52.394Z,47.60
2017-09-24T23:16:22.594Z,50.90
2017-09-24T23:18:52.471Z,47.70
2017-09-24T23:21:22.394Z,46.10
2017-09-24T23:23:52.716Z,47.30
2017-09-24T23:26:22.611Z,52.40
2017-09-24T23:28:52.866Z,49.93
2017-09-24T23:31:22.738Z,52.50
2017-09-24T23:33:52.997Z,53.50
2017-09-24T23:36:22.875Z,54.63
2017-09-24T23:38:53.219Z,53.37
2017-09-24T23:41:23.214Z,55.30
2017-09-24T23:43:53.473Z,54.90
2017-09-24T23:46:23.384Z,52.77
2017-09-24T23:48:53.291Z,53.00
2017-09-24T23:51:23.210Z,54.97
2017-09-24T23:53:53.086Z,54.50
2017-09-24T23:56:23.654Z,48.73
2017-09-24T23:58:53.707Z,55.80
